sensor_id;sensor_type;location;lat;lon;timestamp;pressure;altitude;pressure_sealevel;temperature;humidity
70730;BME280;58315;53.336;55.932;2023-09-19T00:02:03;99867.72;;;16.74;54.43
70730;BME280;58315;53.336;55.932;2023-09-19T00:04:34;99869.72;;;16.72;54.41
70730;BME280;58315;53.336;55.932;2023-09-19T00:07:00;99864.06;;;16.59;54.45
70730;BME280;58315;53.336;55.932;2023-09-19T00:09:28;99868.06;;;16.55;54.60
70730;BME280;58315;53.336;55.932;2023-09-19T00:11:55;99865.75;;;16.52;54.47
70730;BME280;58315;53.336;55.932;2023-09-19T00:14:24;99865.56;;;16.61;54.68
70730;BME280;58315;53.336;55.932;2023-09-19T00:16:50;99864.06;;;16.59;54.33
70730;BME280;58315;53.336;55.932;2023-09-19T00:19:16;99861.56;;;16.57;54.24
70730;BME280;58315;53.336;55.932;2023-09-19T00:21:44;99853.56;;;16.57;54.35
70730;BME280;58315;53.336;55.932;2023-09-19T00:24:11;99851.44;;;16.53;54.51
70730;BME280;58315;53.336;55.932;2023-09-19T00:26:37;99852.09;;;16.47;54.48
70730;BME280;58315;53.336;55.932;2023-09-19T00:29:04;99856.44;;;16.39;54.40
70730;BME280;58315;53.336;55.932;2023-09-19T00:31:30;99854.78;;;16.30;54.52
70730;BME280;58315;53.336;55.932;2023-09-19T00:33:59;99850.47;;;16.21;54.90
70730;BME280;58315;53.336;55.932;2023-09-19T00:36:32;99852.63;;;16.18;55.03
70730;BME280;58315;53.336;55.932;2023-09-19T00:38:59;99850.47;;;15.97;55.21
70730;BME280;58315;53.336;55.932;2023-09-19T00:41:26;99854.47;;;15.93;55.52
70730;BME280;58315;53.336;55.932;2023-09-19T00:43:55;99854.81;;;15.89;55.38
70730;BME280;58315;53.336;55.932;2023-09-19T00:46:22;99848.81;;;15.87;55.46
70730;BME280;58315;53.336;55.932;2023-09-19T00:48:48;99847.50;;;15.83;55.36
70730;BME280;58315;53.336;55.932;2023-09-19T00:51:16;99845.47;;;15.85;55.28
70730;BME280;58315;53.336;55.932;2023-09-19T00:53:46;99843.81;;;15.93;55.24
70730;BME280;58315;53.336;55.932;2023-09-19T00:56:14;99841.31;;;15.91;55.10
70730;BME280;58315;53.336;55.932;2023-09-19T00:58:44;99848.81;;;16.04;55.03
70730;BME280;58315;53.336;55.932;2023-09-19T01:01:13;99848.47;;;15.74;55.79
70730;BME280;58315;53.336;55.932;2023-09-19T01:03:41;99845.13;;;15.72;55.58
70730;BME280;58315;53.336;55.932;2023-09-19T01:06:08;99845.31;;;15.71;55.48
70730;BME280;58315;53.336;55.932;2023-09-19T01:08:35;99846.78;;;15.65;55.47
70730;BME280;58315;53.336;55.932;2023-09-19T01:16:46;99852.13;;;15.73;55.43
70730;BME280;58315;53.336;55.932;2023-09-19T01:30:58;99845.56;;;15.43;55.92
70730;BME280;58315;53.336;55.932;2023-09-19T01:34:01;99852.06;;;15.49;55.66
70730;BME280;58315;53.336;55.932;2023-09-19T01:36:29;99847.03;;;15.29;55.95
70730;BME280;58315;53.336;55.932;2023-09-19T01:38:59;99851.69;;;15.27;56.07
70730;BME280;58315;53.336;55.932;2023-09-19T01:42:03;99852.38;;;15.37;55.72
70730;BME280;58315;53.336;55.932;2023-09-19T01:44:48;99850.72;;;15.36;55.87
70730;BME280;58315;53.336;55.932;2023-09-19T01:47:32;99860.66;;;15.26;56.04
70730;BME280;58315;53.336;55.932;2023-09-19T01:50:12;99859.31;;;15.22;56.18
70730;BME280;58315;53.336;55.932;2023-09-19T01:52:57;99857.81;;;15.28;56.26
70730;BME280;58315;53.336;55.932;2023-09-19T01:55:28;99860.31;;;15.21;56.04
70730;BME280;58315;53.336;55.932;2023-09-19T01:58:06;99858.00;;;15.34;55.91
70730;BME280;58315;53.336;55.932;2023-09-19T02:00:37;99863.66;;;15.31;56.08
70730;BME280;58315;53.336;55.932;2023-09-19T02:03:04;99862.31;;;15.27;56.03
70730;BME280;58315;53.336;55.932;2023-09-19T02:05:31;99863.00;;;15.29;55.80
70730;BME280;58315;53.336;55.932;2023-09-19T02:08:01;99866.63;;;15.28;55.97
70730;BME280;58315;53.336;55.932;2023-09-19T02:10:28;99869.31;;;15.28;55.91
70730;BME280;58315;53.336;55.932;2023-09-19T02:12:54;99870.81;;;15.31;56.07
70730;BME280;58315;53.336;55.932;2023-09-19T02:15:20;99867.53;;;15.37;55.79
70730;BME280;58315;53.336;55.932;2023-09-19T02:17:48;99877.84;;;15.40;55.93
70730;BME280;58315;53.336;55.932;2023-09-19T02:20:14;99872.34;;;15.41;55.71
70730;BME280;58315;53.336;55.932;2023-09-19T02:22:43;99879.00;;;15.46;55.88
70730;BME280;58315;53.336;55.932;2023-09-19T02:25:30;99876.34;;;15.46;55.68
70730;BME280;58315;53.336;55.932;2023-09-19T02:27:57;99880.34;;;15.41;55.79
70730;BME280;58315;53.336;55.932;2023-09-19T02:30:25;99880.84;;;15.45;55.54
70730;BME280;58315;53.336;55.932;2023-09-19T02:32:52;99886.69;;;15.49;55.67
70730;BME280;58315;53.336;55.932;2023-09-19T02:35:18;99895.88;;;15.54;55.63
70730;BME280;58315;53.336;55.932;2023-09-19T02:37:47;99892.38;;;15.62;55.33
70730;BME280;58315;53.336;55.932;2023-09-19T02:40:14;99883.91;;;15.66;55.30
70730;BME280;58315;53.336;55.932;2023-09-19T02:42:54;99886.41;;;15.68;55.25
70730;BME280;58315;53.336;55.932;2023-09-19T02:45:23;99890.25;;;15.65;55.18
70730;BME280;58315;53.336;55.932;2023-09-19T02:47:50;99886.22;;;15.61;55.25
70730;BME280;58315;53.336;55.932;2023-09-19T02:50:17;99883.38;;;15.63;55.29
70730;BME280;58315;53.336;55.932;2023-09-19T02:52:44;99897.84;;;15.60;55.41
70730;BME280;58315;53.336;55.932;2023-09-19T02:55:12;99891.03;;;15.58;55.44
70730;BME280;58315;53.336;55.932;2023-09-19T02:57:40;99889.22;;;15.58;55.48
70730;BME280;58315;53.336;55.932;2023-09-19T03:00:10;99901.03;;;15.64;55.61
70730;BME280;58315;53.336;55.932;2023-09-19T03:02:38;99895.41;;;15.67;55.23
70730;BME280;58315;53.336;55.932;2023-09-19T03:05:05;99892.75;;;15.75;55.35
70730;BME280;58315;53.336;55.932;2023-09-19T03:07:33;99887.75;;;15.72;55.08
70730;BME280;58315;53.336;55.932;2023-09-19T03:09:59;99892.75;;;15.75;55.33
70730;BME280;58315;53.336;55.932;2023-09-19T03:12:26;99892.44;;;15.78;55.21
70730;BME280;58315;53.336;55.932;2023-09-19T03:14:53;99886.28;;;15.78;55.00
70730;BME280;58315;53.336;55.932;2023-09-19T03:17:20;99886.09;;;15.79;55.12
70730;BME280;58315;53.336;55.932;2023-09-19T03:19:47;99888.28;;;15.84;55.12
70730;BME280;58315;53.336;55.932;2023-09-19T03:22:15;99884.94;;;15.90;55.11
70730;BME280;58315;53.336;55.932;2023-09-19T03:24:41;99890.78;;;15.94;55.05
70730;BME280;58315;53.336;55.932;2023-09-19T03:27:10;99896.97;;;16.02;54.88
70730;BME280;58315;53.336;55.932;2023-09-19T03:29:37;99892.78;;;16.08;54.67
70730;BME280;58315;53.336;55.932;2023-09-19T03:32:05;99894.47;;;16.17;54.56
70730;BME280;58315;53.336;55.932;2023-09-19T03:34:32;99890.13;;;16.24;54.67
70730;BME280;58315;53.336;55.932;2023-09-19T03:36:58;99884.28;;;16.29;54.61
70730;BME280;58315;53.336;55.932;2023-09-19T03:39:26;99893.94;;;16.38;54.70
70730;BME280;58315;53.336;55.932;2023-09-19T03:41:53;99893.25;;;16.52;54.45
70730;BME280;58315;53.336;55.932;2023-09-19T03:44:19;99893.25;;;16.60;54.62
70730;BME280;58315;53.336;55.932;2023-09-19T03:46:45;99891.88;;;16.73;54.60
70730;BME280;58315;53.336;55.932;2023-09-19T03:49:12;99897.56;;;16.86;54.26
70730;BME280;58315;53.336;55.932;2023-09-19T03:51:38;99893.00;;;16.95;54.46
70730;BME280;58315;53.336;55.932;2023-09-19T03:54:07;99897.34;;;17.04;54.35
70730;BME280;58315;53.336;55.932;2023-09-19T03:56:34;99899.13;;;17.11;54.43
70730;BME280;58315;53.336;55.932;2023-09-19T03:59:00;99908.94;;;17.19;54.37
70730;BME280;58315;53.336;55.932;2023-09-19T04:01:26;99903.03;;;17.32;54.15
70730;BME280;58315;53.336;55.932;2023-09-19T04:03:53;99913.47;;;17.50;54.20
70730;BME280;58315;53.336;55.932;2023-09-19T04:06:20;99915.34;;;17.72;53.88
70730;BME280;58315;53.336;55.932;2023-09-19T04:08:46;99907.19;;;17.97;53.57
70730;BME280;58315;53.336;55.932;2023-09-19T04:11:13;99917.16;;;18.26;53.20
70730;BME280;58315;53.336;55.932;2023-09-19T04:13:39;99914.09;;;18.52;52.71
70730;BME280;58315;53.336;55.932;2023-09-19T04:16:06;99916.00;;;18.81;52.61
70730;BME280;58315;53.336;55.932;2023-09-19T04:18:36;99914.63;;;19.00;51.82
70730;BME280;58315;53.336;55.932;2023-09-19T04:21:05;99915.53;;;19.22;51.43
70730;BME280;58315;53.336;55.932;2023-09-19T04:23:32;99909.72;;;19.69;51.38
70730;BME280;58315;53.336;55.932;2023-09-19T04:25:59;99918.31;;;20.01;50.55
70730;BME280;58315;53.336;55.932;2023-09-19T04:28:25;99910.38;;;20.14;49.78
70730;BME280;58315;53.336;55.932;2023-09-19T04:30:54;99911.91;;;20.45;48.97
70730;BME280;58315;53.336;55.932;2023-09-19T04:33:21;99914.03;;;20.78;49.06
70730;BME280;58315;53.336;55.932;2023-09-19T04:35:49;99911.09;;;21.07;48.47
70730;BME280;58315;53.336;55.932;2023-09-19T04:38:20;99914.88;;;21.67;47.48
70730;BME280;58315;53.336;55.932;2023-09-19T04:40:47;99916.88;;;22.40;47.06
70730;BME280;58315;53.336;55.932;2023-09-19T04:43:13;99912.03;;;22.88;45.35
70730;BME280;58315;53.336;55.932;2023-09-19T04:45:41;99912.69;;;23.55;45.48
70730;BME280;58315;53.336;55.932;2023-09-19T04:48:07;99915.59;;;24.74;44.27
70730;BME280;58315;53.336;55.932;2023-09-19T04:50:36;99917.47;;;25.95;40.95
70730;BME280;58315;53.336;55.932;2023-09-19T04:53:03;99915.34;;;26.98;40.30
70730;BME280;58315;53.336;55.932;2023-09-19T04:55:30;99910.16;;;27.89;38.99
70730;BME280;58315;53.336;55.932;2023-09-19T04:57:58;99909.53;;;28.66;36.25
70730;BME280;58315;53.336;55.932;2023-09-19T05:00:24;99914.34;;;29.37;37.04
70730;BME280;58315;53.336;55.932;2023-09-19T05:02:57;99904.50;;;30.12;34.59
70730;BME280;58315;53.336;55.932;2023-09-19T05:05:23;99914.22;;;30.67;33.56
70730;BME280;58315;53.336;55.932;2023-09-19T05:07:51;99914.81;;;31.16;33.31
70730;BME280;58315;53.336;55.932;2023-09-19T05:10:19;99905.97;;;31.62;31.17
70730;BME280;58315;53.336;55.932;2023-09-19T05:12:46;99905.78;;;31.99;30.13
70730;BME280;58315;53.336;55.932;2023-09-19T05:15:14;99909.09;;;32.47;30.55
70730;BME280;58315;53.336;55.932;2023-09-19T05:17:41;99902.75;;;32.72;29.88
70730;BME280;58315;53.336;55.932;2023-09-19T05:20:07;99894.78;;;32.91;29.64
70730;BME280;58315;53.336;55.932;2023-09-19T05:22:42;99894.75;;;33.01;28.38
70730;BME280;58315;53.336;55.932;2023-09-19T05:25:12;99897.97;;;33.19;28.46
70730;BME280;58315;53.336;55.932;2023-09-19T05:27:43;99902.94;;;33.17;28.12
70730;BME280;58315;53.336;55.932;2023-09-19T05:30:10;99903.38;;;33.34;28.17
70730;BME280;58315;53.336;55.932;2023-09-19T05:32:37;99910.72;;;33.49;27.08
70730;BME280;58315;53.336;55.932;2023-09-19T05:35:03;99910.38;;;33.66;27.71
70730;BME280;58315;53.336;55.932;2023-09-19T05:37:34;99907.31;;;33.67;27.00
70730;BME280;58315;53.336;55.932;2023-09-19T05:40:00;99902.44;;;33.59;27.40
70730;BME280;58315;53.336;55.932;2023-09-19T05:42:29;99899.81;;;33.33;27.37
70730;BME280;58315;53.336;55.932;2023-09-19T05:44:55;99906.81;;;32.80;26.26
70730;BME280;58315;53.336;55.932;2023-09-19T05:47:22;99906.59;;;32.20;26.14
70730;BME280;58315;53.336;55.932;2023-09-19T05:49:48;99897.47;;;31.53;26.47
70730;BME280;58315;53.336;55.932;2023-09-19T05:52:16;99900.63;;;30.35;27.19
70730;BME280;58315;53.336;55.932;2023-09-19T05:54:43;99896.69;;;28.78;27.86
70730;BME280;58315;53.336;55.932;2023-09-19T05:57:10;99892.13;;;27.54;29.21
70730;BME280;58315;53.336;55.932;2023-09-19T05:59:38;99908.28;;;26.97;30.39
70730;BME280;58315;53.336;55.932;2023-09-19T06:02:05;99905.22;;;26.35;31.43
70730;BME280;58315;53.336;55.932;2023-09-19T06:04:32;99909.22;;;25.60;32.21
70730;BME280;58315;53.336;55.932;2023-09-19T06:06:58;99899.88;;;25.26;32.47
70730;BME280;58315;53.336;55.932;2023-09-19T06:09:24;99896.75;;;25.04;33.19
70730;BME280;58315;53.336;55.932;2023-09-19T06:11:53;99901.34;;;24.85;33.49
70730;BME280;58315;53.336;55.932;2023-09-19T06:14:21;99895.59;;;24.57;33.86
70730;BME280;58315;53.336;55.932;2023-09-19T06:16:49;99895.44;;;24.51;33.97
70730;BME280;58315;53.336;55.932;2023-09-19T06:19:15;99898.66;;;24.35;34.27
70730;BME280;58315;53.336;55.932;2023-09-19T06:21:41;99893.88;;;24.37;34.52
70730;BME280;58315;53.336;55.932;2023-09-19T06:24:08;99890.34;;;24.37;34.62
70730;BME280;58315;53.336;55.932;2023-09-19T06:26:34;99894.66;;;24.19;34.67
70730;BME280;58315;53.336;55.932;2023-09-19T06:29:00;99894.38;;;24.02;35.28
70730;BME280;58315;53.336;55.932;2023-09-19T06:31:26;99893.19;;;23.92;35.42
70730;BME280;58315;53.336;55.932;2023-09-19T06:33:53;99888.34;;;24.00;35.37
70730;BME280;58315;53.336;55.932;2023-09-19T06:36:19;99877.88;;;23.86;35.13
70730;BME280;58315;53.336;55.932;2023-09-19T06:38:46;99882.50;;;23.78;34.50
70730;BME280;58315;53.336;55.932;2023-09-19T06:41:12;99875.06;;;23.74;35.01
70730;BME280;58315;53.336;55.932;2023-09-19T06:43:40;99870.66;;;23.79;34.46
70730;BME280;58315;53.336;55.932;2023-09-19T06:46:07;99878.25;;;23.89;34.38
70730;BME280;58315;53.336;55.932;2023-09-19T06:48:33;99877.22;;;23.90;33.89
70730;BME280;58315;53.336;55.932;2023-09-19T06:51:00;99874.84;;;23.69;33.68
70730;BME280;58315;53.336;55.932;2023-09-19T06:53:32;99871.69;;;23.78;34.19
70730;BME280;58315;53.336;55.932;2023-09-19T06:56:00;99871.53;;;23.73;33.90
70730;BME280;58315;53.336;55.932;2023-09-19T06:58:26;99869.66;;;23.74;34.18
70730;BME280;58315;53.336;55.932;2023-09-19T07:00:52;99867.63;;;23.94;34.45
70730;BME280;58315;53.336;55.932;2023-09-19T07:03:19;99859.72;;;23.99;34.56
70730;BME280;58315;53.336;55.932;2023-09-19T07:05:48;99864.72;;;23.96;35.02
70730;BME280;58315;53.336;55.932;2023-09-19T07:08:14;99857.03;;;23.99;34.74
70730;BME280;58315;53.336;55.932;2023-09-19T07:10:42;99853.81;;;24.09;34.35
70730;BME280;58315;53.336;55.932;2023-09-19T07:13:15;99851.94;;;24.35;34.33
70730;BME280;58315;53.336;55.932;2023-09-19T07:15:44;99852.00;;;24.71;34.00
70730;BME280;58315;53.336;55.932;2023-09-19T07:18:16;99857.94;;;24.43;33.75
70730;BME280;58315;53.336;55.932;2023-09-19T07:20:44;99852.97;;;24.40;34.13
70730;BME280;58315;53.336;55.932;2023-09-19T07:23:20;99854.03;;;24.33;33.88
70730;BME280;58315;53.336;55.932;2023-09-19T07:25:48;99848.56;;;24.21;33.50
70730;BME280;58315;53.336;55.932;2023-09-19T07:28:16;99853.88;;;24.02;33.83
70730;BME280;58315;53.336;55.932;2023-09-19T07:30:43;99860.06;;;24.10;33.87
70730;BME280;58315;53.336;55.932;2023-09-19T07:33:10;99851.31;;;24.14;33.44
70730;BME280;58315;53.336;55.932;2023-09-19T07:35:38;99846.19;;;24.06;33.47
70730;BME280;58315;53.336;55.932;2023-09-19T07:38:08;99846.94;;;24.13;33.73
70730;BME280;58315;53.336;55.932;2023-09-19T07:40:36;99846.31;;;24.36;33.69
70730;BME280;58315;53.336;55.932;2023-09-19T07:43:02;99851.50;;;24.63;33.40
70730;BME280;58315;53.336;55.932;2023-09-19T07:45:31;99839.41;;;24.65;32.75
70730;BME280;58315;53.336;55.932;2023-09-19T07:47:58;99839.53;;;24.27;32.42
70730;BME280;58315;53.336;55.932;2023-09-19T07:50:26;99849.63;;;24.13;33.06
70730;BME280;58315;53.336;55.932;2023-09-19T07:52:53;99853.03;;;24.02;33.19
70730;BME280;58315;53.336;55.932;2023-09-19T07:55:20;99842.13;;;23.90;33.23
70730;BME280;58315;53.336;55.932;2023-09-19T07:57:49;99841.03;;;23.98;33.42
70730;BME280;58315;53.336;55.932;2023-09-19T08:00:15;99842.59;;;24.12;33.41
70730;BME280;58315;53.336;55.932;2023-09-19T08:02:42;99838.34;;;24.23;32.95
70730;BME280;58315;53.336;55.932;2023-09-19T08:05:10;99836.63;;;24.28;33.32
70730;BME280;58315;53.336;55.932;2023-09-19T08:07:39;99844.44;;;24.43;32.79
70730;BME280;58315;53.336;55.932;2023-09-19T08:10:06;99840.75;;;24.31;32.35
70730;BME280;58315;53.336;55.932;2023-09-19T08:12:44;99832.56;;;24.44;32.57
70730;BME280;58315;53.336;55.932;2023-09-19T08:15:16;99839.47;;;24.40;32.99
70730;BME280;58315;53.336;55.932;2023-09-19T08:17:42;99837.47;;;24.29;32.92
70730;BME280;58315;53.336;55.932;2023-09-19T08:20:09;99836.47;;;24.23;31.89
70730;BME280;58315;53.336;55.932;2023-09-19T08:22:50;99829.81;;;24.26;32.48
70730;BME280;58315;53.336;55.932;2023-09-19T08:25:18;99830.13;;;24.36;32.39
70730;BME280;58315;53.336;55.932;2023-09-19T08:27:46;99831.72;;;24.19;32.16
70730;BME280;58315;53.336;55.932;2023-09-19T08:30:16;99832.78;;;24.18;32.97
70730;BME280;58315;53.336;55.932;2023-09-19T08:32:42;99834.44;;;24.19;33.15
70730;BME280;58315;53.336;55.932;2023-09-19T08:35:10;99834.81;;;24.22;33.37
70730;BME280;58315;53.336;55.932;2023-09-19T08:37:37;99834.91;;;24.34;33.21
70730;BME280;58315;53.336;55.932;2023-09-19T08:40:03;99829.56;;;24.27;32.72
70730;BME280;58315;53.336;55.932;2023-09-19T08:42:50;99835.03;;;24.64;33.16
70730;BME280;58315;53.336;55.932;2023-09-19T08:45:17;99831.78;;;24.37;31.93
70730;BME280;58315;53.336;55.932;2023-09-19T08:47:49;99826.00;;;24.09;32.00
70730;BME280;58315;53.336;55.932;2023-09-19T08:50:19;99828.44;;;23.92;32.85
70730;BME280;58315;53.336;55.932;2023-09-19T08:52:46;99828.16;;;24.00;33.40
70730;BME280;58315;53.336;55.932;2023-09-19T08:55:14;99833.94;;;24.03;33.22
70730;BME280;58315;53.336;55.932;2023-09-19T08:57:49;99829.13;;;24.05;33.09
70730;BME280;58315;53.336;55.932;2023-09-19T09:00:16;99836.47;;;23.98;33.47
70730;BME280;58315;53.336;55.932;2023-09-19T09:02:49;99831.63;;;23.82;32.86
70730;BME280;58315;53.336;55.932;2023-09-19T09:05:16;99831.63;;;23.82;33.34
70730;BME280;58315;53.336;55.932;2023-09-19T09:07:52;99838.81;;;24.13;33.34
70730;BME280;58315;53.336;55.932;2023-09-19T09:10:22;99826.91;;;24.02;33.20
70730;BME280;58315;53.336;55.932;2023-09-19T09:12:52;99839.97;;;24.24;33.57
70730;BME280;58315;53.336;55.932;2023-09-19T09:15:19;99836.47;;;23.98;33.79
70730;BME280;58315;53.336;55.932;2023-09-19T09:17:47;99839.03;;;23.87;34.29
70730;BME280;58315;53.336;55.932;2023-09-19T09:20:19;99839.72;;;23.82;34.83
70730;BME280;58315;53.336;55.932;2023-09-19T09:22:52;99829.03;;;23.94;34.65
70730;BME280;58315;53.336;55.932;2023-09-19T09:25:20;99836.63;;;23.78;35.00
70730;BME280;58315;53.336;55.932;2023-09-19T09:28:00;99843.09;;;24.02;35.05
70730;BME280;58315;53.336;55.932;2023-09-19T09:30:35;99836.03;;;24.01;33.96
70730;BME280;58315;53.336;55.932;2023-09-19T09:33:13;99834.94;;;23.84;33.92
70730;BME280;58315;53.336;55.932;2023-09-19T09:36:00;99832.78;;;23.93;33.55
70730;BME280;58315;53.336;55.932;2023-09-19T09:38:47;99835.78;;;24.10;33.65
70730;BME280;58315;53.336;55.932;2023-09-19T09:41:36;99831.72;;;24.19;34.25
70730;BME280;58315;53.336;55.932;2023-09-19T09:44:17;99828.22;;;24.18;34.23
70730;BME280;58315;53.336;55.932;2023-09-19T09:46:46;99828.22;;;23.93;34.26
70730;BME280;58315;53.336;55.932;2023-09-19T09:49:23;99831.06;;;23.98;34.58
70730;BME280;58315;53.336;55.932;2023-09-19T09:52:01;99822.41;;;23.90;34.98
70730;BME280;58315;53.336;55.932;2023-09-19T09:54:35;99832.00;;;23.47;36.08
70730;BME280;58315;53.336;55.932;2023-09-19T09:57:07;99834.97;;;23.39;36.55
70730;BME280;58315;53.336;55.932;2023-09-19T09:59:51;99834.25;;;23.57;36.55
70730;BME280;58315;53.336;55.932;2023-09-19T10:04:52;99841.16;;;23.01;37.07
70730;BME280;58315;53.336;55.932;2023-09-19T10:07:41;99850.06;;;23.08;37.16
70730;BME280;58315;53.336;55.932;2023-09-19T10:10:08;99850.69;;;23.04;37.33
70730;BME280;58315;53.336;55.932;2023-09-19T10:12:54;99850.88;;;23.02;37.80
70730;BME280;58315;53.336;55.932;2023-09-19T10:15:23;99853.22;;;22.79;38.08
70730;BME280;58315;53.336;55.932;2023-09-19T10:17:52;99852.00;;;22.75;38.06
70730;BME280;58315;53.336;55.932;2023-09-19T10:20:22;99862.31;;;22.98;37.93
70730;BME280;58315;53.336;55.932;2023-09-19T10:23:00;99859.63;;;22.98;38.58
70730;BME280;58315;53.336;55.932;2023-09-19T10:25:27;99854.47;;;22.70;39.08
70730;BME280;58315;53.336;55.932;2023-09-19T10:28:05;99856.94;;;22.78;38.95
70730;BME280;58315;53.336;55.932;2023-09-19T10:30:38;99860.69;;;22.70;39.01
70730;BME280;58315;53.336;55.932;2023-09-19T10:33:11;99859.28;;;22.61;39.10
70730;BME280;58315;53.336;55.932;2023-09-19T10:35:40;99858.22;;;22.55;39.25
70730;BME280;58315;53.336;55.932;2023-09-19T10:38:10;99860.75;;;22.50;39.68
70730;BME280;58315;53.336;55.932;2023-09-19T10:40:37;99852.66;;;22.37;40.03
70730;BME280;58315;53.336;55.932;2023-09-19T10:43:15;99854.94;;;22.53;39.71
70730;BME280;58315;53.336;55.932;2023-09-19T10:45:48;99853.25;;;22.59;39.85
70730;BME280;58315;53.336;55.932;2023-09-19T10:48:21;99854.53;;;22.43;39.93
70730;BME280;58315;53.336;55.932;2023-09-19T10:51:02;99862.00;;;22.34;40.43
70730;BME280;58315;53.336;55.932;2023-09-19T10:56:10;99860.75;;;22.30;39.93
70730;BME280;58315;53.336;55.932;2023-09-19T10:58:43;99864.88;;;22.33;40.11
70730;BME280;58315;53.336;55.932;2023-09-19T11:01:11;99859.50;;;22.33;40.05
70730;BME280;58315;53.336;55.932;2023-09-19T11:03:44;99858.28;;;22.29;40.04
70730;BME280;58315;53.336;55.932;2023-09-19T11:06:16;99858.69;;;22.32;39.81
70730;BME280;58315;53.336;55.932;2023-09-19T11:09:00;99852.47;;;22.32;39.96
70730;BME280;58315;53.336;55.932;2023-09-19T11:11:51;99861.81;;;22.16;40.37
70730;BME280;58315;53.336;55.932;2023-09-19T11:30:36;99865.13;;;22.38;40.59
70730;BME280;58315;53.336;55.932;2023-09-19T11:33:26;99857.41;;;22.61;40.14
70730;BME280;58315;53.336;55.932;2023-09-19T11:44:30;99862.63;;;22.43;41.21
70730;BME280;58315;53.336;55.932;2023-09-19T11:49:40;99856.16;;;22.64;41.07
70730;BME280;58315;53.336;55.932;2023-09-19T11:52:07;99863.66;;;22.49;41.15
70730;BME280;58315;53.336;55.932;2023-09-19T11:54:35;99861.97;;;22.54;40.81
70730;BME280;58315;53.336;55.932;2023-09-19T11:57:06;99852.84;;;22.62;40.92
70730;BME280;58315;53.336;55.932;2023-09-19T11:59:34;99862.94;;;22.80;41.04
70730;BME280;58315;53.336;55.932;2023-09-19T12:02:06;99866.13;;;22.30;41.09
70730;BME280;58315;53.336;55.932;2023-09-19T12:04:36;99866.13;;;22.37;41.14
70730;BME280;58315;53.336;55.932;2023-09-19T12:07:15;99870.69;;;22.56;40.91
70730;BME280;58315;53.336;55.932;2023-09-19T12:09:48;99876.25;;;22.48;40.41
70730;BME280;58315;53.336;55.932;2023-09-19T12:12:22;99875.25;;;22.23;40.24
70730;BME280;58315;53.336;55.932;2023-09-19T12:14:49;99876.66;;;22.12;40.85
70730;BME280;58315;53.336;55.932;2023-09-19T12:17:17;99876.50;;;22.20;40.74
70730;BME280;58315;53.336;55.932;2023-09-19T12:19:51;99883.31;;;22.29;40.94
70730;BME280;58315;53.336;55.932;2023-09-19T12:22:18;99880.63;;;22.23;41.16
70730;BME280;58315;53.336;55.932;2023-09-19T12:24:46;99881.47;;;22.17;41.33
70730;BME280;58315;53.336;55.932;2023-09-19T12:27:13;99872.78;;;22.21;41.28
70730;BME280;58315;53.336;55.932;2023-09-19T12:29:49;99882.31;;;22.24;41.25
70730;BME280;58315;53.336;55.932;2023-09-19T12:32:16;99885.34;;;22.07;41.31
70730;BME280;58315;53.336;55.932;2023-09-19T12:34:52;99895.13;;;22.28;40.70
70730;BME280;58315;53.336;55.932;2023-09-19T12:37:18;99900.88;;;21.92;41.03
70730;BME280;58315;53.336;55.932;2023-09-19T12:39:50;99900.41;;;21.75;41.40
70730;BME280;58315;53.336;55.932;2023-09-19T12:42:19;99899.97;;;21.72;41.14
70730;BME280;58315;53.336;55.932;2023-09-19T12:44:47;99899.72;;;21.53;41.40
70730;BME280;58315;53.336;55.932;2023-09-19T12:47:17;99904.47;;;21.45;41.48
70730;BME280;58315;53.336;55.932;2023-09-19T12:50:05;99909.50;;;21.67;41.57
70730;BME280;58315;53.336;55.932;2023-09-19T12:52:37;99918.16;;;21.63;41.79
70730;BME280;58315;53.336;55.932;2023-09-19T12:55:04;99913.75;;;21.42;41.98
70730;BME280;58315;53.336;55.932;2023-09-19T12:57:35;99909.81;;;21.38;41.99
70730;BME280;58315;53.336;55.932;2023-09-19T13:00:05;99905.06;;;21.05;42.68
70730;BME280;58315;53.336;55.932;2023-09-19T13:02:33;99911.81;;;20.88;42.99
70730;BME280;58315;53.336;55.932;2023-09-19T13:04:59;99908.72;;;20.91;42.84
70730;BME280;58315;53.336;55.932;2023-09-19T13:07:40;99915.50;;;21.22;42.69
70730;BME280;58315;53.336;55.932;2023-09-19T13:10:09;99916.84;;;21.04;42.64
70730;BME280;58315;53.336;55.932;2023-09-19T13:12:37;99913.41;;;21.17;42.73
70730;BME280;58315;53.336;55.932;2023-09-19T13:15:11;99921.88;;;21.20;42.57
70730;BME280;58315;53.336;55.932;2023-09-19T13:17:45;99917.41;;;20.93;42.92
70730;BME280;58315;53.336;55.932;2023-09-19T13:20:22;99921.25;;;20.77;43.07
70730;BME280;58315;53.336;55.932;2023-09-19T13:22:54;99922.69;;;20.80;42.87
70730;BME280;58315;53.336;55.932;2023-09-19T13:25:24;99936.81;;;20.88;43.68
70730;BME280;58315;53.336;55.932;2023-09-19T13:27:53;99943.19;;;20.87;43.18
70730;BME280;58315;53.336;55.932;2023-09-19T13:30:27;99935.13;;;20.81;43.34
70730;BME280;58315;53.336;55.932;2023-09-19T13:33:11;99938.06;;;20.92;43.24
70730;BME280;58315;53.336;55.932;2023-09-19T13:35:38;99942.13;;;20.82;42.75
70730;BME280;58315;53.336;55.932;2023-09-19T13:38:07;99943.06;;;20.67;43.13
70730;BME280;58315;53.336;55.932;2023-09-19T13:40:40;99950.72;;;20.70;43.23
70730;BME280;58315;53.336;55.932;2023-09-19T13:43:09;99949.16;;;20.55;42.63
70730;BME280;58315;53.336;55.932;2023-09-19T13:45:37;99946.56;;;20.46;42.84
70730;BME280;58315;53.336;55.932;2023-09-19T13:48:03;99944.69;;;20.40;42.60
70730;BME280;58315;53.336;55.932;2023-09-19T13:50:30;99956.09;;;20.49;42.69
70730;BME280;58315;53.336;55.932;2023-09-19T13:52:57;99950.56;;;20.51;42.59
70730;BME280;58315;53.336;55.932;2023-09-19T13:55:25;99954.72;;;20.53;42.81